createdAt,value
2023-01-23T00:00:27.185Z,4.26
2023-01-23T00:01:27.216Z,4.37
2023-01-23T00:02:27.237Z,4.44
2023-01-23T00:03:28.131Z,4.40
2023-01-23T00:04:27.248Z,4.38
2023-01-23T00:05:27.133Z,4.37
2023-01-23T00:06:27.143Z,4.32
2023-01-23T00:07:27.076Z,4.40
2023-01-23T00:08:27.072Z,4.40
2023-01-23T00:09:27.090Z,4.20
2023-01-23T00:10:27.086Z,4.37
2023-01-23T00:11:27.107Z,4.42
2023-01-23T00:12:27.146Z,4.42
2023-01-23T00:13:27.049Z,4.38
2023-01-23T00:14:27.023Z,4.50
2023-01-23T00:15:27.069Z,4.52
2023-01-23T00:16:26.981Z,4.52
2023-01-23T00:17:26.981Z,4.63
2023-01-23T00:18:26.979Z,4.55
2023-01-23T00:19:26.952Z,4.49
2023-01-23T00:20:26.937Z,4.59
2023-01-23T00:21:27.958Z,4.58
2023-01-23T00:22:26.923Z,4.40
2023-01-23T00:23:26.918Z,4.42
2023-01-23T00:24:27.908Z,4.45
2023-01-23T00:25:26.901Z,4.38
2023-01-23T00:26:26.913Z,4.22
2023-01-23T00:27:26.899Z,4.22
2023-01-23T00:28:27.964Z,4.20
2023-01-23T00:29:26.880Z,4.20
2023-01-23T00:30:26.885Z,4.34
2023-01-23T00:31:26.953Z,4.40
2023-01-23T00:32:26.833Z,4.50
2023-01-23T00:33:26.845Z,4.42
2023-01-23T00:34:26.794Z,4.40
2023-01-23T00:35:26.794Z,4.48
2023-01-23T00:36:26.760Z,4.40
2023-01-23T00:37:27.749Z,4.38
2023-01-23T00:38:26.755Z,4.41
2023-01-23T00:39:26.760Z,4.45
2023-01-23T00:40:26.721Z,4.56
2023-01-23T00:41:26.739Z,4.38
2023-01-23T00:42:26.711Z,4.35
2023-01-23T00:43:26.705Z,4.34
2023-01-23T00:44:26.808Z,4.40
2023-01-23T00:45:26.655Z,4.40
2023-01-23T00:46:27.683Z,4.31
2023-01-23T00:47:26.676Z,4.37
2023-01-23T00:48:26.642Z,4.32
2023-01-23T00:49:27.609Z,4.14
2023-01-23T00:50:26.626Z,4.19
2023-01-23T00:51:26.756Z,4.35
2023-01-23T00:52:26.597Z,4.30
2023-01-23T00:53:26.616Z,4.28
2023-01-23T00:54:26.575Z,4.40
2023-01-23T00:55:26.616Z,4.44
2023-01-23T00:56:26.572Z,4.53
2023-01-23T00:57:26.539Z,4.58
2023-01-23T00:58:26.549Z,4.63
2023-01-23T00:59:26.505Z,4.63
2023-01-23T01:00:26.614Z,4.59
2023-01-23T01:01:26.574Z,4.58
2023-01-23T01:02:26.510Z,4.38
2023-01-23T01:03:27.453Z,4.44
2023-01-23T01:04:26.483Z,4.41
2023-01-23T01:05:26.445Z,4.49
2023-01-23T01:06:27.432Z,4.48
2023-01-23T01:07:27.413Z,4.49
2023-01-23T01:08:26.415Z,4.48
2023-01-23T01:09:26.416Z,4.38
2023-01-23T01:10:26.414Z,4.38
2023-01-23T01:11:26.376Z,4.34
2023-01-23T01:12:26.370Z,4.41
2023-01-23T01:13:26.350Z,4.44
2023-01-23T01:14:26.335Z,4.28
2023-01-23T01:15:26.353Z,4.22
2023-01-23T01:16:26.889Z,4.34
2023-01-23T01:17:26.313Z,4.40
2023-01-23T01:18:26.305Z,4.38
2023-01-23T01:19:26.313Z,4.37
2023-01-23T01:20:26.277Z,4.17
2023-01-23T01:21:26.303Z,4.32
2023-01-23T01:22:27.278Z,4.41
2023-01-23T01:23:26.259Z,4.49
2023-01-23T01:24:26.238Z,4.38
2023-01-23T01:25:26.239Z,4.35
2023-01-23T01:26:26.256Z,4.49
2023-01-23T01:27:26.222Z,4.53
2023-01-23T01:28:27.248Z,4.48
2023-01-23T01:29:27.191Z,4.55
2023-01-23T01:30:27.168Z,4.53
2023-01-23T01:31:26.313Z,4.41
2023-01-23T01:32:26.293Z,4.48
2023-01-23T01:33:26.180Z,4.37
2023-01-23T01:34:26.148Z,4.45
2023-01-23T01:35:26.125Z,4.48
2023-01-23T01:36:27.143Z,4.34
2023-01-23T01:37:26.103Z,4.32
2023-01-23T01:38:27.080Z,4.31
2023-01-23T01:39:26.084Z,4.28
2023-01-23T01:40:27.065Z,4.37
2023-01-23T01:41:26.047Z,4.48
2023-01-23T01:42:26.099Z,4.55
2023-01-23T01:43:26.057Z,4.58
2023-01-23T01:44:26.023Z,4.60
2023-01-23T01:45:26.013Z,4.62
2023-01-23T01:46:26.066Z,4.73
2023-01-23T01:47:25.986Z,4.70
2023-01-23T01:48:26.120Z,4.55
2023-01-23T01:49:25.987Z,4.40
2023-01-23T01:50:25.955Z,4.44
2023-01-23T01:51:26.055Z,4.45
2023-01-23T01:52:25.924Z,4.28
2023-01-23T01:53:25.921Z,4.38
2023-01-23T01:54:25.912Z,4.38
2023-01-23T01:55:26.913Z,4.41
2023-01-23T01:56:26.918Z,4.40
2023-01-23T01:57:25.897Z,4.40
2023-01-23T01:58:25.852Z,4.30
2023-01-23T01:59:26.857Z,4.42
2023-01-23T02:00:25.847Z,4.50
2023-01-23T02:01:25.833Z,4.41
2023-01-23T02:02:25.822Z,4.49
2023-01-23T02:03:26.826Z,4.44
2023-01-23T02:04:25.929Z,4.44
2023-01-23T02:05:25.798Z,4.40
2023-01-23T02:06:25.777Z,4.44
2023-01-23T02:07:26.750Z,4.40
2023-01-23T02:08:25.789Z,4.48
2023-01-23T02:09:25.772Z,4.53
2023-01-23T02:10:25.730Z,4.35
2023-01-23T02:11:25.741Z,4.35
2023-01-23T02:12:26.741Z,4.40
2023-01-23T02:13:25.708Z,4.37
2023-01-23T02:14:25.736Z,4.37
2023-01-23T02:15:25.700Z,4.37
2023-01-23T02:16:26.707Z,4.38
2023-01-23T02:17:25.657Z,4.45
2023-01-23T02:18:26.656Z,4.44
2023-01-23T02:19:25.639Z,4.40
2023-01-23T02:20:26.764Z,4.23
2023-01-23T02:21:25.664Z,4.32
2023-01-23T02:22:25.608Z,4.30
2023-01-23T02:23:25.603Z,4.40
2023-01-23T02:24:25.567Z,4.22
2023-01-23T02:25:25.572Z,4.44
2023-01-23T02:26:26.565Z,4.16
2023-01-23T02:27:26.548Z,4.13
2023-01-23T02:28:25.685Z,4.14
2023-01-23T02:29:25.536Z,4.20
2023-01-23T02:30:25.503Z,4.28
2023-01-23T02:31:25.586Z,4.34
2023-01-23T02:32:25.504Z,4.41
2023-01-23T02:33:25.516Z,4.49
2023-01-23T02:34:25.497Z,4.52
2023-01-23T02:35:25.474Z,4.48
2023-01-23T02:36:25.559Z,4.40
2023-01-23T02:37:25.451Z,4.28
2023-01-23T02:38:26.440Z,4.38
2023-01-23T02:39:25.404Z,4.32
2023-01-23T02:40:25.389Z,4.17
2023-01-23T02:41:25.436Z,4.16
2023-01-23T02:42:25.402Z,4.17
2023-01-23T02:43:26.360Z,4.35
2023-01-23T02:44:25.402Z,4.42
2023-01-23T02:45:25.360Z,4.41
2023-01-23T02:46:25.341Z,4.50
2023-01-23T02:47:25.327Z,4.42
2023-01-23T02:48:25.322Z,4.42
2023-01-23T02:49:25.316Z,4.38
2023-01-23T02:50:25.326Z,4.34
2023-01-23T02:51:25.352Z,4.12
2023-01-23T02:52:25.390Z,4.26
2023-01-23T02:53:25.267Z,4.38
2023-01-23T02:54:25.288Z,4.34
2023-01-23T02:55:26.302Z,4.32
2023-01-23T02:56:25.218Z,4.44
2023-01-23T02:57:25.267Z,4.40
2023-01-23T02:58:25.199Z,4.50
2023-01-23T02:59:25.193Z,4.49
2023-01-23T03:00:25.196Z,4.58
2023-01-23T03:01:25.191Z,4.58
2023-01-23T03:02:25.326Z,4.48
2023-01-23T03:03:25.211Z,4.38
2023-01-23T03:04:25.138Z,4.30
2023-01-23T03:05:25.133Z,4.35
2023-01-23T03:06:25.138Z,4.22
2023-01-23T03:07:26.172Z,4.16
2023-01-23T03:08:25.253Z,4.23
2023-01-23T03:09:25.081Z,4.17
2023-01-23T03:10:26.077Z,4.34
2023-01-23T03:11:25.060Z,4.38
2023-01-23T03:12:25.081Z,4.41
2023-01-23T03:13:25.026Z,4.40
2023-01-23T03:14:25.039Z,4.17
2023-01-23T03:15:26.029Z,4.19
2023-01-23T03:16:25.020Z,4.24
2023-01-23T03:17:25.027Z,4.16
2023-01-23T03:18:25.983Z,4.10
2023-01-23T03:19:26.037Z,3.98
2023-01-23T03:20:24.956Z,4.06
2023-01-23T03:21:24.973Z,3.99
2023-01-23T03:22:24.939Z,4.19
2023-01-23T03:23:24.925Z,4.32
2023-01-23T03:24:25.075Z,4.40
2023-01-23T03:25:24.935Z,4.41
2023-01-23T03:26:24.893Z,4.28
2023-01-23T03:27:24.903Z,3.96
2023-01-23T03:28:24.859Z,4.10
2023-01-23T03:29:24.870Z,4.04
2023-01-23T03:30:24.839Z,4.16
2023-01-23T03:31:25.879Z,4.23
2023-01-23T03:32:25.856Z,4.22
2023-01-23T03:33:24.815Z,4.19
2023-01-23T03:34:24.816Z,4.14
2023-01-23T03:35:24.790Z,4.04
2023-01-23T03:36:24.798Z,4.14
2023-01-23T03:37:24.789Z,4.19
2023-01-23T03:38:24.768Z,4.13
2023-01-23T03:39:25.794Z,4.16
2023-01-23T03:40:25.839Z,4.13
2023-01-23T03:41:24.727Z,4.13
2023-01-23T03:42:24.751Z,4.13
2023-01-23T03:43:24.701Z,4.28
2023-01-23T03:44:24.686Z,4.23
2023-01-23T03:45:25.718Z,4.17
2023-01-23T03:46:25.661Z,4.14
2023-01-23T03:47:24.684Z,4.02
2023-01-23T03:48:24.645Z,4.04
2023-01-23T03:49:24.671Z,4.02
2023-01-23T03:50:25.651Z,4.05
2023-01-23T03:51:24.711Z,4.10
2023-01-23T03:52:24.611Z,4.01
2023-01-23T03:53:24.596Z,3.92
2023-01-23T03:54:24.590Z,3.91
2023-01-23T03:55:24.581Z,4.04
2023-01-23T03:56:24.690Z,4.05
2023-01-23T03:57:24.545Z,4.14
2023-01-23T03:58:24.570Z,4.28
2023-01-23T03:59:26.130Z,4.40
2023-01-23T04:00:24.524Z,4.20
2023-01-23T04:01:24.560Z,4.32
2023-01-23T04:02:24.538Z,4.32
2023-01-23T04:03:25.499Z,4.38
2023-01-23T04:04:25.475Z,4.16
2023-01-23T04:05:25.489Z,4.10
2023-01-23T04:06:24.443Z,4.04
2023-01-23T04:07:24.468Z,4.02
2023-01-23T04:08:25.458Z,4.12
2023-01-23T04:09:24.431Z,4.22
2023-01-23T04:10:25.485Z,4.17
2023-01-23T04:11:24.400Z,4.16
2023-01-23T04:12:24.503Z,4.24
2023-01-23T04:13:24.387Z,4.19
2023-01-23T04:14:24.395Z,4.17
2023-01-23T04:15:24.382Z,4.20
2023-01-23T04:16:24.423Z,4.19
2023-01-23T04:17:25.344Z,4.22
2023-01-23T04:18:24.322Z,4.20
2023-01-23T04:19:24.313Z,4.16
2023-01-23T04:20:24.326Z,4.31
2023-01-23T04:21:25.349Z,4.37
2023-01-23T04:22:25.305Z,4.41
2023-01-23T04:23:24.256Z,4.34
2023-01-23T04:24:24.260Z,4.20
2023-01-23T04:25:24.257Z,4.32
2023-01-23T04:26:25.256Z,4.24
2023-01-23T04:27:24.245Z,4.32
2023-01-23T04:28:24.341Z,4.34
2023-01-23T04:29:24.247Z,4.35
2023-01-23T04:30:25.286Z,4.44
2023-01-23T04:31:24.282Z,4.41
2023-01-23T04:32:24.162Z,4.35
2023-01-23T04:33:24.161Z,4.22
2023-01-23T04:34:24.171Z,4.22
2023-01-23T04:35:24.188Z,4.34
2023-01-23T04:36:24.131Z,4.38
2023-01-23T04:37:24.129Z,4.42
2023-01-23T04:38:24.095Z,4.48
2023-01-23T04:39:24.118Z,4.44
2023-01-23T04:40:24.108Z,4.37
2023-01-23T04:41:24.130Z,4.44
2023-01-23T04:42:24.084Z,4.45
2023-01-23T04:43:24.075Z,4.41
2023-01-23T04:44:24.139Z,4.41
2023-01-23T04:45:24.046Z,4.42
2023-01-23T04:46:24.268Z,4.40
2023-01-23T04:47:24.074Z,4.41
2023-01-23T04:48:23.997Z,4.53
2023-01-23T04:49:24.978Z,4.52
2023-01-23T04:50:23.965Z,4.48
2023-01-23T04:51:24.075Z,4.53
2023-01-23T04:52:24.024Z,4.45
2023-01-23T04:53:23.931Z,4.49
2023-01-23T04:54:23.922Z,4.59
2023-01-23T04:55:23.908Z,4.59
2023-01-23T04:56:24.921Z,4.50
2023-01-23T04:57:23.903Z,4.50
2023-01-23T04:58:23.913Z,4.55
2023-01-23T04:59:23.906Z,4.55
2023-01-23T05:00:24.009Z,4.50
2023-01-23T05:01:23.903Z,4.44
2023-01-23T05:02:23.947Z,4.58
2023-01-23T05:03:23.850Z,4.49
2023-01-23T05:04:23.810Z,4.52
2023-01-23T05:05:24.830Z,4.41
2023-01-23T05:06:23.812Z,4.50
2023-01-23T05:07:23.805Z,4.52
2023-01-23T05:08:23.801Z,4.53
2023-01-23T05:09:23.789Z,4.35
2023-01-23T05:10:23.746Z,4.44
2023-01-23T05:11:23.762Z,4.41
2023-01-23T05:12:23.746Z,4.50
2023-01-23T05:13:24.742Z,4.48
2023-01-23T05:14:23.718Z,4.45
2023-01-23T05:15:23.745Z,4.40
2023-01-23T05:16:23.807Z,4.23
2023-01-23T05:17:23.688Z,4.22
2023-01-23T05:18:23.696Z,4.35
2023-01-23T05:19:23.644Z,4.42
2023-01-23T05:20:23.653Z,4.41
2023-01-23T05:21:23.649Z,4.37
2023-01-23T05:22:24.644Z,4.35
2023-01-23T05:23:23.646Z,4.23
2023-01-23T05:24:24.602Z,4.16
2023-01-23T05:25:24.603Z,4.19
2023-01-23T05:26:23.621Z,4.16
2023-01-23T05:27:23.594Z,4.14
2023-01-23T05:28:23.604Z,4.20
2023-01-23T05:29:23.543Z,4.28
2023-01-23T05:30:23.539Z,4.22
2023-01-23T05:31:23.635Z,4.22
2023-01-23T05:32:23.635Z,4.34
2023-01-23T05:33:23.530Z,4.30
2023-01-23T05:34:23.565Z,4.17
2023-01-23T05:35:23.469Z,4.38
2023-01-23T05:36:23.491Z,4.40
2023-01-23T05:37:23.458Z,4.45
2023-01-23T05:38:23.448Z,4.38
2023-01-23T05:39:23.465Z,4.41
2023-01-23T05:40:23.419Z,4.37
2023-01-23T05:41:25.577Z,4.40
2023-01-23T05:42:23.384Z,4.35
2023-01-23T05:43:23.393Z,4.41
2023-01-23T05:44:23.392Z,4.53
2023-01-23T05:45:24.370Z,4.42
2023-01-23T05:46:23.427Z,4.40
2023-01-23T05:47:23.372Z,4.37
2023-01-23T05:48:23.486Z,4.48
2023-01-23T05:49:23.332Z,4.41
2023-01-23T05:50:23.326Z,4.34
2023-01-23T05:51:23.596Z,4.35
2023-01-23T05:52:23.310Z,4.17
2023-01-23T05:53:23.300Z,4.22
2023-01-23T05:54:23.267Z,4.17
2023-01-23T05:55:23.272Z,4.24
2023-01-23T05:56:23.278Z,4.20
2023-01-23T05:57:23.237Z,4.38
2023-01-23T05:58:23.292Z,4.42
2023-01-23T05:59:24.234Z,4.31
2023-01-23T06:00:23.200Z,4.34
2023-01-23T06:01:23.236Z,4.38
2023-01-23T06:02:23.238Z,4.34
2023-01-23T06:03:23.194Z,4.31
2023-01-23T06:04:23.299Z,4.16
2023-01-23T06:05:23.132Z,4.32
2023-01-23T06:06:23.163Z,4.19
2023-01-23T06:07:23.138Z,4.16
2023-01-23T06:08:23.111Z,4.10
2023-01-23T06:09:23.096Z,4.16
2023-01-23T06:10:23.101Z,4.02
2023-01-23T06:11:24.087Z,4.05
2023-01-23T06:12:23.070Z,4.06
2023-01-23T06:13:23.082Z,4.16
2023-01-23T06:14:24.098Z,4.19
2023-01-23T06:15:24.060Z,4.23
2023-01-23T06:16:23.039Z,4.35
2023-01-23T06:17:22.998Z,4.19
2023-01-23T06:18:23.045Z,4.34
2023-01-23T06:19:23.995Z,4.31
2023-01-23T06:20:23.103Z,4.26
2023-01-23T06:21:22.990Z,4.34
2023-01-23T06:22:22.968Z,4.19
2023-01-23T06:23:22.965Z,4.13
2023-01-23T06:24:22.941Z,3.99
2023-01-23T06:25:22.929Z,3.98
2023-01-23T06:26:22.901Z,4.08
2023-01-23T06:27:23.941Z,4.05
2023-01-23T06:28:22.896Z,4.16
2023-01-23T06:29:23.887Z,4.16
2023-01-23T06:30:23.062Z,4.28
2023-01-23T06:31:23.060Z,4.34
2023-01-23T06:32:22.838Z,4.37
2023-01-23T06:33:23.857Z,4.37
2023-01-23T06:34:22.823Z,4.22
2023-01-23T06:35:22.938Z,4.26
2023-01-23T06:36:22.935Z,4.24
2023-01-23T06:37:22.779Z,4.16
2023-01-23T06:38:22.787Z,4.08
2023-01-23T06:39:22.836Z,4.14
2023-01-23T06:40:22.871Z,4.19
2023-01-23T06:41:22.774Z,4.23
2023-01-23T06:42:22.763Z,4.24
2023-01-23T06:43:22.822Z,4.34
2023-01-23T06:44:22.724Z,4.28
2023-01-23T06:45:23.705Z,4.24
2023-01-23T06:46:22.728Z,4.12
2023-01-23T06:47:22.703Z,4.28
2023-01-23T06:48:22.655Z,4.16
2023-01-23T06:49:22.706Z,4.30
2023-01-23T06:50:23.068Z,4.44
2023-01-23T06:51:22.721Z,4.42
2023-01-23T06:52:23.761Z,4.32
2023-01-23T06:53:22.633Z,4.26
2023-01-23T06:54:22.633Z,4.19
2023-01-23T06:55:22.629Z,4.19
2023-01-23T06:56:22.584Z,4.22
2023-01-23T06:57:22.594Z,4.31
2023-01-23T06:58:22.566Z,4.45
2023-01-23T06:59:22.584Z,4.40
2023-01-23T07:00:22.883Z,4.41
2023-01-23T07:01:22.576Z,4.40
2023-01-23T07:02:22.506Z,4.44
2023-01-23T07:03:22.530Z,4.20
2023-01-23T07:04:22.509Z,4.22
2023-01-23T07:05:22.523Z,4.30
2023-01-23T07:06:22.475Z,4.34
2023-01-23T07:07:22.450Z,4.30
2023-01-23T07:08:22.570Z,4.01
2023-01-23T07:09:22.462Z,4.08
2023-01-23T07:10:22.596Z,4.19
2023-01-23T07:11:22.420Z,4.12
2023-01-23T07:12:22.409Z,4.16
2023-01-23T07:13:22.395Z,4.05
2023-01-23T07:14:22.408Z,4.06
2023-01-23T07:15:22.375Z,4.19
2023-01-23T07:16:22.451Z,4.28
2023-01-23T07:17:22.386Z,4.16
2023-01-23T07:18:22.341Z,4.40
2023-01-23T07:19:23.322Z,4.41
2023-01-23T07:20:22.743Z,4.22
2023-01-23T07:21:22.334Z,4.23
2023-01-23T07:22:22.305Z,4.20
2023-01-23T07:23:22.297Z,4.23
2023-01-23T07:24:22.393Z,4.30
2023-01-23T07:25:22.265Z,4.16
2023-01-23T07:26:22.274Z,4.32
2023-01-23T07:27:22.257Z,4.37
2023-01-23T07:28:22.234Z,4.41
2023-01-23T07:29:22.246Z,4.38
2023-01-23T07:30:22.529Z,4.40
2023-01-23T07:31:22.355Z,4.35
2023-01-23T07:32:23.195Z,4.48
2023-01-23T07:33:22.199Z,4.52
2023-01-23T07:34:23.171Z,4.35
2023-01-23T07:35:22.167Z,4.14
2023-01-23T07:36:22.153Z,4.16
2023-01-23T07:37:22.142Z,4.32
2023-01-23T07:38:23.127Z,4.41
2023-01-23T07:39:23.099Z,4.30
2023-01-23T07:40:22.574Z,4.16
2023-01-23T07:41:22.123Z,4.16
2023-01-23T07:42:23.074Z,4.31
2023-01-23T07:43:23.099Z,4.41
2023-01-23T07:44:22.060Z,4.44
2023-01-23T07:45:22.049Z,4.37
2023-01-23T07:46:22.115Z,4.41
2023-01-23T07:47:23.046Z,4.40
2023-01-23T07:48:22.012Z,4.49
2023-01-23T07:49:22.557Z,4.59
2023-01-23T07:50:22.430Z,4.60
2023-01-23T07:51:22.026Z,4.68
2023-01-23T07:52:21.980Z,4.82
2023-01-23T07:53:22.948Z,4.86
2023-01-23T07:54:22.006Z,4.77
2023-01-23T07:55:21.945Z,4.67
2023-01-23T07:56:23.078Z,4.53
2023-01-23T07:57:21.920Z,4.34
2023-01-23T07:58:21.920Z,4.53
2023-01-23T07:59:22.910Z,4.60
2023-01-23T08:00:24.395Z,4.66
2023-01-23T08:01:21.964Z,4.66
2023-01-23T08:02:21.851Z,4.74
2023-01-23T08:03:21.857Z,4.82
2023-01-23T08:04:21.832Z,4.75
2023-01-23T08:05:21.884Z,4.86
2023-01-23T08:06:21.824Z,4.80
2023-01-23T08:07:21.890Z,4.68
2023-01-23T08:08:21.785Z,4.68
2023-01-23T08:09:22.776Z,4.67
2023-01-23T08:10:22.152Z,4.68
2023-01-23T08:11:22.782Z,4.63
2023-01-23T08:12:21.923Z,4.63
2023-01-23T08:13:21.733Z,4.53
2023-01-23T08:14:22.731Z,4.40
2023-01-23T08:15:22.743Z,4.41
2023-01-23T08:16:21.762Z,4.56
2023-01-23T08:17:22.711Z,4.67
2023-01-23T08:18:21.694Z,4.68
2023-01-23T08:19:21.682Z,4.68
2023-01-23T08:20:22.006Z,4.62
2023-01-23T08:21:21.680Z,4.55
2023-01-23T08:22:21.625Z,4.45
2023-01-23T08:23:21.630Z,4.49
2023-01-23T08:24:22.670Z,4.52
2023-01-23T08:25:22.644Z,4.62
2023-01-23T08:26:21.633Z,4.59
2023-01-23T08:27:21.601Z,4.55
2023-01-23T08:28:21.672Z,4.38
2023-01-23T08:29:21.552Z,4.34
2023-01-23T08:30:22.100Z,4.32
2023-01-23T08:31:22.732Z,4.37
2023-01-23T08:32:21.546Z,4.50
2023-01-23T08:33:21.505Z,4.53
2023-01-23T08:34:22.497Z,4.63
2023-01-23T08:35:21.489Z,4.58
2023-01-23T08:36:21.524Z,4.40
2023-01-23T08:37:21.469Z,4.55
2023-01-23T08:38:21.489Z,4.58
2023-01-23T08:39:21.477Z,4.70
2023-01-23T08:40:22.703Z,4.58
2023-01-23T08:41:21.446Z,4.34
2023-01-23T08:42:21.414Z,4.22
2023-01-23T08:43:21.413Z,4.24
2023-01-23T08:44:21.532Z,4.40
2023-01-23T08:45:21.372Z,4.32
2023-01-23T08:46:22.399Z,4.19
2023-01-23T08:47:21.367Z,4.20
2023-01-23T08:48:21.343Z,4.37
2023-01-23T08:49:21.357Z,4.48
2023-01-23T08:50:22.632Z,4.48
2023-01-23T08:51:22.395Z,4.22
2023-01-23T08:52:21.401Z,4.16
2023-01-23T08:53:22.292Z,4.10
2023-01-23T08:54:21.364Z,4.31
2023-01-23T08:55:21.283Z,4.34
2023-01-23T08:56:22.377Z,4.44
2023-01-23T08:57:21.259Z,4.56
2023-01-23T08:58:21.468Z,4.53
2023-01-23T08:59:21.251Z,4.45
2023-01-23T09:00:21.634Z,4.38
2023-01-23T09:01:21.326Z,4.55
2023-01-23T09:02:22.373Z,4.55
2023-01-23T09:03:21.190Z,4.60
2023-01-23T09:04:22.182Z,4.67
2023-01-23T09:05:21.194Z,4.63
2023-01-23T09:06:21.151Z,4.63
2023-01-23T09:07:21.155Z,4.62
2023-01-23T09:08:22.136Z,4.74
2023-01-23T09:09:21.124Z,4.62
2023-01-23T09:11:10.565Z,4.70
2023-01-23T09:12:10.540Z,4.75
2023-01-23T09:13:10.506Z,4.84
2023-01-23T09:14:10.553Z,4.82
2023-01-23T09:15:10.485Z,4.86
2023-01-23T09:16:11.732Z,4.77
2023-01-23T09:17:10.491Z,4.86
2023-01-23T09:18:11.446Z,4.96
2023-01-23T09:19:10.465Z,4.94
2023-01-23T09:20:10.419Z,4.92
2023-01-23T09:21:10.418Z,4.84
2023-01-23T09:22:10.410Z,4.75
2023-01-23T09:23:10.445Z,4.86
2023-01-23T09:24:10.431Z,4.89
2023-01-23T09:25:10.412Z,4.74
2023-01-23T09:26:10.355Z,4.67
2023-01-23T09:27:10.377Z,4.70
2023-01-23T09:28:10.346Z,4.38
2023-01-23T09:29:10.370Z,4.16
2023-01-23T09:30:11.317Z,4.35
2023-01-23T09:31:10.297Z,4.41
2023-01-23T09:32:10.443Z,4.45
2023-01-23T09:33:10.291Z,4.49
2023-01-23T09:34:11.302Z,4.58
2023-01-23T09:35:10.273Z,4.60
2023-01-23T09:36:10.310Z,4.48
2023-01-23T09:37:10.247Z,4.62
2023-01-23T09:38:10.234Z,4.55
2023-01-23T09:39:10.248Z,4.59
2023-01-23T09:40:10.204Z,4.67
2023-01-23T09:41:11.245Z,4.59
2023-01-23T09:42:10.176Z,4.82
2023-01-23T09:43:10.168Z,4.86
2023-01-23T09:44:10.183Z,4.90
2023-01-23T09:45:10.154Z,4.92
2023-01-23T09:46:10.209Z,4.93
2023-01-23T09:47:10.150Z,4.80
2023-01-23T09:48:10.253Z,4.96
2023-01-23T09:49:10.118Z,5.11
2023-01-23T09:50:10.593Z,5.14
2023-01-23T09:51:10.092Z,5.14
2023-01-23T09:52:10.099Z,4.96
2023-01-23T09:53:11.067Z,4.99
2023-01-23T09:54:10.053Z,4.92
2023-01-23T09:55:10.062Z,4.96
2023-01-23T09:56:11.029Z,4.99
2023-01-23T09:57:10.033Z,4.86
2023-01-23T09:58:10.022Z,4.75
2023-01-23T09:59:10.019Z,4.80
2023-01-23T10:00:09.998Z,4.63
2023-01-23T10:01:10.045Z,4.71
2023-01-23T10:02:09.998Z,4.77
2023-01-23T10:03:09.964Z,4.71
2023-01-23T10:04:10.062Z,4.58
2023-01-23T10:05:09.926Z,4.53
2023-01-23T10:06:10.939Z,4.67
2023-01-23T10:07:09.914Z,4.78
2023-01-23T10:08:10.914Z,4.89
2023-01-23T10:09:09.901Z,4.82
2023-01-23T10:10:10.919Z,4.97
2023-01-23T10:11:09.915Z,4.97
2023-01-23T10:12:09.864Z,4.97
2023-01-23T10:13:09.846Z,4.89
2023-01-23T10:14:09.830Z,4.86
2023-01-23T10:15:09.828Z,4.86
2023-01-23T10:16:09.841Z,4.68
2023-01-23T10:17:09.880Z,4.87
2023-01-23T10:18:09.796Z,4.66
2023-01-23T10:19:10.781Z,4.62
2023-01-23T10:20:09.896Z,4.71
2023-01-23T10:21:09.765Z,4.71
2023-01-23T10:22:19.633Z,4.78
2023-01-23T10:23:10.751Z,4.90
2023-01-23T10:24:09.716Z,5.02
2023-01-23T10:25:09.750Z,4.94
2023-01-23T10:26:09.722Z,5.05
2023-01-23T10:27:09.713Z,5.17
2023-01-23T10:28:10.845Z,5.12
2023-01-23T10:29:09.659Z,5.05
2023-01-23T10:30:10.669Z,5.12
2023-01-23T10:31:09.723Z,5.14
2023-01-23T10:32:09.633Z,5.12
2023-01-23T10:33:09.681Z,5.11
2023-01-23T10:34:09.647Z,5.10
2023-01-23T10:35:10.050Z,5.21
2023-01-23T10:36:11.033Z,5.23
2023-01-23T10:37:09.585Z,5.18
2023-01-23T10:38:09.584Z,4.93
2023-01-23T10:39:09.597Z,4.84
2023-01-23T10:40:09.575Z,4.66
2023-01-23T10:41:09.545Z,4.87
2023-01-23T10:42:09.561Z,4.90
2023-01-23T10:43:09.546Z,5.12
2023-01-23T10:44:09.516Z,4.84
2023-01-23T10:45:09.518Z,4.84
2023-01-23T10:46:09.555Z,4.96
2023-01-23T10:47:09.465Z,4.84
2023-01-23T10:48:16.079Z,4.82
2023-01-23T10:49:10.480Z,4.87
2023-01-23T10:50:09.456Z,4.89
2023-01-23T10:51:09.523Z,4.90
2023-01-23T10:52:10.539Z,4.90
2023-01-23T10:53:09.423Z,4.96
2023-01-23T10:54:11.355Z,5.11
2023-01-23T10:55:10.403Z,5.21
2023-01-23T10:56:09.375Z,5.17
2023-01-23T10:57:09.385Z,5.23
2023-01-23T10:58:09.391Z,5.15
2023-01-23T10:59:09.337Z,5.11
2023-01-23T11:00:09.326Z,5.14
2023-01-23T11:01:10.410Z,5.14
2023-01-23T11:02:09.521Z,5.20
2023-01-23T11:03:09.435Z,5.28
2023-01-23T11:04:09.292Z,5.14
2023-01-23T11:05:09.290Z,5.14
2023-01-23T11:06:09.269Z,5.18
2023-01-23T11:07:10.273Z,5.15
2023-01-23T11:08:10.360Z,5.15
2023-01-23T11:09:09.257Z,5.17
2023-01-23T11:10:09.222Z,5.18
2023-01-23T11:11:09.225Z,5.30
2023-01-23T11:12:09.213Z,5.29
2023-01-23T11:13:09.201Z,5.44
2023-01-23T11:14:09.215Z,5.32
2023-01-23T11:15:09.156Z,5.11
2023-01-23T11:16:09.261Z,5.07
2023-01-23T11:17:09.136Z,5.12
2023-01-23T11:18:09.121Z,5.20
2023-01-23T11:19:10.138Z,5.20
2023-01-23T11:20:09.121Z,5.28
2023-01-23T11:21:09.143Z,5.41
2023-01-23T11:22:09.097Z,5.48
2023-01-23T11:23:09.121Z,5.50
2023-01-23T11:24:09.235Z,5.38
2023-01-23T11:25:09.067Z,5.26
2023-01-23T11:26:09.096Z,5.26
2023-01-23T11:27:10.026Z,5.26
2023-01-23T11:28:09.037Z,5.25
2023-01-23T11:29:10.025Z,5.25
2023-01-23T11:30:10.014Z,5.17
2023-01-23T11:31:14.667Z,5.14
2023-01-23T11:32:10.125Z,5.11
2023-01-23T11:33:09.004Z,5.15
2023-01-23T11:34:08.968Z,5.20
2023-01-23T11:35:08.981Z,5.21
2023-01-23T11:36:08.960Z,5.29
2023-01-23T11:37:08.935Z,5.29
2023-01-23T11:38:09.986Z,5.25
2023-01-23T11:39:09.938Z,5.20
2023-01-23T11:40:09.009Z,5.30
2023-01-23T11:41:08.890Z,5.33
2023-01-23T11:42:08.881Z,5.39
2023-01-23T11:43:08.868Z,5.35
2023-01-23T11:44:10.032Z,5.39
2023-01-23T11:45:08.877Z,5.46
2023-01-23T11:46:08.873Z,5.38
2023-01-23T11:47:09.815Z,5.30
2023-01-23T11:48:09.824Z,5.39
2023-01-23T11:49:08.820Z,5.21
2023-01-23T11:50:08.818Z,5.23
2023-01-23T11:51:08.839Z,5.25
2023-01-23T11:52:08.764Z,5.23
2023-01-23T11:53:08.763Z,5.23
2023-01-23T11:54:08.774Z,5.23
2023-01-23T11:55:08.759Z,5.15
2023-01-23T11:56:08.837Z,5.25
2023-01-23T11:57:08.698Z,5.17
2023-01-23T11:58:09.737Z,5.14
2023-01-23T11:59:08.722Z,4.99
2023-01-23T12:00:08.687Z,4.84
2023-01-23T12:01:09.702Z,4.97
2023-01-23T12:02:08.670Z,5.10
2023-01-23T12:03:08.631Z,5.10
2023-01-23T12:04:08.754Z,5.18
2023-01-23T12:05:09.631Z,5.04
2023-01-23T12:07:09.633Z,5.02
2023-01-23T12:08:08.587Z,5.05
2023-01-23T12:09:08.572Z,5.04
2023-01-23T12:10:08.626Z,5.10
2023-01-23T12:11:08.581Z,5.14
2023-01-23T12:12:08.671Z,5.10
2023-01-23T12:13:08.611Z,5.11
2023-01-23T12:15:09.760Z,5.12
2023-01-23T12:16:08.588Z,5.25
2023-01-23T12:17:08.506Z,5.23
2023-01-23T12:18:08.490Z,5.25
2023-01-23T12:19:08.490Z,5.21
2023-01-23T12:20:09.486Z,5.14
2023-01-23T12:21:08.432Z,5.07
2023-01-23T12:22:08.444Z,4.97
2023-01-23T12:23:08.438Z,5.00
2023-01-23T12:24:08.430Z,5.02
2023-01-23T12:25:08.393Z,4.99
2023-01-23T12:26:08.397Z,4.94
2023-01-23T12:27:08.392Z,5.05
2023-01-23T12:28:09.485Z,4.97
2023-01-23T12:29:08.394Z,5.08
2023-01-23T12:30:08.362Z,5.12
2023-01-23T12:31:08.442Z,4.99
2023-01-23T12:32:08.418Z,5.10
2023-01-23T12:33:08.346Z,5.14
2023-01-23T12:34:08.312Z,5.12
2023-01-23T12:35:09.325Z,5.08
2023-01-23T12:36:08.311Z,4.99
2023-01-23T12:37:16.623Z,5.14
2023-01-23T12:38:09.258Z,5.15
2023-01-23T12:39:08.304Z,5.15
2023-01-23T12:40:08.809Z,5.20
2023-01-23T12:41:08.232Z,5.10
2023-01-23T12:42:08.253Z,5.05
2023-01-23T12:43:08.211Z,5.10
2023-01-23T12:44:08.310Z,5.15
2023-01-23T12:45:08.217Z,5.23
2023-01-23T12:46:08.212Z,5.33
2023-01-23T12:47:08.220Z,5.33
2023-01-23T12:48:08.163Z,5.41
2023-01-23T12:49:08.135Z,5.39
2023-01-23T12:50:09.144Z,5.64
2023-01-23T12:51:08.179Z,5.62
2023-01-23T12:52:09.127Z,5.56
2023-01-23T12:53:08.099Z,5.65
2023-01-23T12:54:08.075Z,5.56
2023-01-23T12:55:08.081Z,5.51
2023-01-23T12:56:09.104Z,5.38
2023-01-23T12:57:08.082Z,5.39
2023-01-23T12:58:09.873Z,5.36
2023-01-23T12:59:08.029Z,5.47
2023-01-23T13:00:08.145Z,5.39
2023-01-23T13:01:08.042Z,5.36
2023-01-23T13:02:08.064Z,5.28
2023-01-23T13:03:07.991Z,5.26
2023-01-23T13:04:08.986Z,5.41
2023-01-23T13:05:09.062Z,5.38
2023-01-23T13:06:07.976Z,5.44
2023-01-23T13:07:07.971Z,5.43
2023-01-23T13:08:07.962Z,5.47
2023-01-23T13:09:17.758Z,5.47
2023-01-23T13:10:08.920Z,5.50
2023-01-23T13:11:08.927Z,5.59
2023-01-23T13:12:07.942Z,5.65
2023-01-23T13:13:07.867Z,5.59
2023-01-23T13:14:07.929Z,5.48
2023-01-23T13:15:34.210Z,5.47
2023-01-23T13:16:08.978Z,5.56
2023-01-23T13:17:07.848Z,5.59
2023-01-23T13:18:07.820Z,5.65
2023-01-23T13:19:07.806Z,5.57
2023-01-23T13:20:07.813Z,5.51
2023-01-23T13:21:07.807Z,5.62